createdAt,value
2022-12-02T00:00:51.569Z,101991.09
2022-12-02T00:03:22.214Z,101989.41
2022-12-02T00:05:56.160Z,101991.22
2022-12-02T00:08:25.728Z,101991.09
2022-12-02T00:10:56.002Z,101987.59
2022-12-02T00:13:26.436Z,101985.78
2022-12-02T00:15:57.900Z,101985.78
2022-12-02T00:18:26.006Z,101979.56
2022-12-02T00:20:55.588Z,101981.41
2022-12-02T00:23:23.407Z,101978.69
2022-12-02T00:25:53.103Z,101977.84
2022-12-02T00:28:21.303Z,101968.34
2022-12-02T00:30:49.096Z,101965.72
2022-12-02T00:33:18.668Z,101968.34
2022-12-02T00:35:47.002Z,101964.81
2022-12-02T00:38:16.304Z,101968.34
2022-12-02T00:40:44.242Z,101964.81
2022-12-02T00:43:29.533Z,101963.03
2022-12-02T00:46:16.310Z,101961.31
2022-12-02T00:48:44.080Z,101961.41
2022-12-02T00:51:11.834Z,101954.31
2022-12-02T00:53:40.924Z,101963.03
2022-12-02T00:56:08.712Z,101959.53
2022-12-02T00:58:36.562Z,101956.97
2022-12-02T01:01:04.850Z,101949.06
2022-12-02T01:03:32.749Z,101951.75
2022-12-02T01:06:00.492Z,101953.47
2022-12-02T01:08:28.937Z,101951.75
2022-12-02T01:10:59.343Z,101955.28
2022-12-02T01:13:28.779Z,101946.53
2022-12-02T01:15:57.043Z,101962.28
2022-12-02T01:18:25.363Z,101957.06
2022-12-02T01:20:53.335Z,101958.78
2022-12-02T01:23:21.141Z,101957.91
2022-12-02T01:25:49.442Z,101955.38
2022-12-02T01:28:19.173Z,101953.47
2022-12-02T01:30:47.768Z,101949.16
2022-12-02T01:33:15.842Z,101960.41
2022-12-02T01:35:43.574Z,101953.38
2022-12-02T01:38:13.801Z,101952.47
2022-12-02T01:40:42.008Z,101948.25
2022-12-02T01:43:09.841Z,101949.97
2022-12-02T01:45:39.416Z,101956.91
2022-12-02T01:48:08.284Z,101952.56
2022-12-02T01:50:36.187Z,101948.16
2022-12-02T01:53:03.986Z,101947.25
2022-12-02T01:55:33.482Z,101943.75
2022-12-02T01:58:01.457Z,101944.66
2022-12-02T02:00:30.020Z,101945.53
2022-12-02T02:02:59.254Z,101945.53
2022-12-02T02:05:32.651Z,101946.38
2022-12-02T02:08:05.931Z,101943.75
2022-12-02T02:10:34.991Z,101940.22
2022-12-02T02:13:03.445Z,101944.66
2022-12-02T02:15:33.161Z,101936.81
2022-12-02T02:18:05.386Z,101938.63
2022-12-02T02:20:35.748Z,101932.50
2022-12-02T02:23:17.996Z,101937.81
2022-12-02T02:25:48.780Z,101934.31
2022-12-02T02:28:20.176Z,101944.75
2022-12-02T02:30:48.503Z,101931.69
2022-12-02T02:33:17.344Z,101936.91
2022-12-02T02:35:47.001Z,101929.88
2022-12-02T02:38:20.301Z,101936.81
2022-12-02T02:40:49.544Z,101937.72
2022-12-02T02:43:20.030Z,101923.66
2022-12-02T02:45:49.279Z,101927.16
2022-12-02T02:48:19.849Z,101930.72
2022-12-02T02:50:49.832Z,101928.09
2022-12-02T02:53:24.374Z,101930.59
2022-12-02T02:55:55.425Z,101928.00
2022-12-02T02:58:26.608Z,101919.25
2022-12-02T03:00:58.656Z,101923.56
2022-12-02T03:03:31.196Z,101925.28
2022-12-02T03:06:02.575Z,101929.63
2022-12-02T03:08:33.100Z,101923.56
2022-12-02T03:11:02.423Z,101920.06
2022-12-02T03:13:32.313Z,101920.06
2022-12-02T03:16:02.142Z,101918.34
2022-12-02T03:18:30.419Z,101915.75
2022-12-02T03:20:59.088Z,101922.78
2022-12-02T03:23:27.786Z,101910.63
2022-12-02T03:25:58.036Z,101908.00
2022-12-02T03:28:26.327Z,101907.91
2022-12-02T03:30:54.486Z,101890.53
2022-12-02T03:33:22.658Z,101904.41
2022-12-02T03:35:50.989Z,101901.91
2022-12-02T03:38:19.005Z,101900.19
2022-12-02T03:40:47.812Z,101895.75
2022-12-02T03:43:17.172Z,101892.25
2022-12-02T03:45:45.139Z,101900.09
2022-12-02T03:48:14.054Z,101896.59
2022-12-02T03:50:42.623Z,101898.38
2022-12-02T03:53:10.629Z,101898.38
2022-12-02T03:55:38.660Z,101892.25
2022-12-02T03:58:08.554Z,101887.84
2022-12-02T04:00:38.404Z,101880.81
2022-12-02T04:03:06.750Z,101883.53
2022-12-02T04:05:34.814Z,101879.19
2022-12-02T04:08:03.176Z,101869.59
2022-12-02T04:10:31.188Z,101880.91
2022-12-02T04:12:59.043Z,101874.81
2022-12-02T04:15:27.371Z,101868.66
2022-12-02T04:17:56.561Z,101873.00
2022-12-02T04:20:24.628Z,101869.50
2022-12-02T04:22:52.462Z,101871.19
2022-12-02T04:25:20.317Z,101865.88
2022-12-02T04:27:48.338Z,101866.78
2022-12-02T04:30:16.595Z,101860.53
2022-12-02T04:32:44.840Z,101870.19
2022-12-02T04:35:14.184Z,101870.19
2022-12-02T04:37:42.117Z,101868.47
2022-12-02T04:40:11.099Z,101867.59
2022-12-02T04:42:39.016Z,101868.38
2022-12-02T04:45:07.681Z,101864.88
2022-12-02T04:47:35.684Z,101863.16
2022-12-02T04:50:03.614Z,101856.16
2022-12-02T04:52:32.948Z,101857.03
2022-12-02T04:55:00.912Z,101854.34
2022-12-02T04:57:31.704Z,101852.66
2022-12-02T05:00:00.189Z,101855.25
2022-12-02T05:02:28.223Z,101856.16
2022-12-02T05:04:56.387Z,101858.75
2022-12-02T05:07:24.626Z,101847.44
2022-12-02T05:09:53.878Z,101844.81
2022-12-02T05:12:21.771Z,101852.66
2022-12-02T05:14:49.987Z,101850.94
2022-12-02T05:17:18.153Z,101848.31
2022-12-02T05:19:46.222Z,101848.31
2022-12-02T05:22:14.113Z,101855.31
2022-12-02T05:24:42.091Z,101850.03
2022-12-02T05:27:12.391Z,101851.81
2022-12-02T05:29:40.282Z,101849.22
2022-12-02T05:32:08.765Z,101852.72
2022-12-02T05:34:36.738Z,101852.72
2022-12-02T05:37:04.658Z,101852.66
2022-12-02T05:39:32.649Z,101850.09
2022-12-02T05:42:03.823Z,101857.88
2022-12-02T05:44:39.663Z,101855.16
2022-12-02T05:47:12.770Z,101860.38
2022-12-02T05:49:41.979Z,101864.78
2022-12-02T05:52:22.227Z,101856.06
2022-12-02T05:54:52.536Z,101860.47
2022-12-02T05:57:27.978Z,101854.34
2022-12-02T06:00:07.815Z,101850.03
2022-12-02T06:02:42.192Z,101859.56
2022-12-02T06:05:17.618Z,101856.06
2022-12-02T06:07:46.280Z,101854.34
2022-12-02T06:10:23.908Z,101855.25
2022-12-02T06:12:53.453Z,101852.66
2022-12-02T06:15:22.695Z,101855.25
2022-12-02T06:17:51.158Z,101855.25
2022-12-02T06:20:26.883Z,101848.22
2022-12-02T06:22:55.339Z,101859.56
2022-12-02T06:25:27.017Z,101854.34
2022-12-02T06:27:59.547Z,101860.47
2022-12-02T06:30:29.155Z,101870.91
2022-12-02T06:32:59.697Z,101857.78
2022-12-02T06:35:30.021Z,101859.56
2022-12-02T06:38:00.149Z,101868.22
2022-12-02T06:40:31.530Z,101869.09
2022-12-02T06:43:00.703Z,101863.00
2022-12-02T06:45:32.326Z,101860.28
2022-12-02T06:48:12.968Z,101866.50
2022-12-02T06:50:43.414Z,101867.38
2022-12-02T06:53:25.711Z,101866.50
2022-12-02T06:55:58.199Z,101863.97
2022-12-02T06:58:33.703Z,101873.59
2022-12-02T07:01:26.391Z,101872.69
2022-12-02T07:04:09.104Z,101871.91
2022-12-02T07:06:40.052Z,101874.53
2022-12-02T07:09:18.182Z,101877.91
2022-12-02T07:11:53.351Z,101868.38
2022-12-02T07:14:39.790Z,101876.19
2022-12-02T07:17:20.997Z,101873.69
2022-12-02T07:19:51.278Z,101878.91
2022-12-02T07:22:22.196Z,101889.44
2022-12-02T07:24:56.223Z,101880.63
2022-12-02T07:27:26.934Z,101887.66
2022-12-02T07:29:56.756Z,101887.66
2022-12-02T07:32:26.033Z,101890.47
2022-12-02T07:34:54.439Z,101883.53
2022-12-02T07:37:22.355Z,101879.19
2022-12-02T07:39:50.278Z,101876.59
2022-12-02T07:42:18.539Z,101891.47
2022-12-02T07:44:46.529Z,101880.09
2022-12-02T07:47:14.613Z,101884.53
2022-12-02T07:49:43.856Z,101879.31
2022-12-02T07:52:11.742Z,101880.19
2022-12-02T07:54:39.788Z,101884.63
2022-12-02T07:57:07.758Z,101880.19
2022-12-02T07:59:35.852Z,101875.06
2022-12-02T08:02:03.995Z,101876.88
2022-12-02T08:04:32.144Z,101877.78
2022-12-02T08:07:01.720Z,101872.56
2022-12-02T08:09:29.917Z,101876.97
2022-12-02T08:11:57.776Z,101876.06
2022-12-02T08:14:25.744Z,101870.84
2022-12-02T08:16:53.780Z,101870.84
2022-12-02T08:19:22.233Z,101871.84
2022-12-02T08:21:50.183Z,101874.47
2022-12-02T08:24:19.550Z,101872.75
2022-12-02T08:26:47.438Z,101877.16
2022-12-02T08:29:15.550Z,101873.63
2022-12-02T08:31:43.316Z,101877.22
2022-12-02T08:34:11.080Z,101866.00
2022-12-02T08:36:38.823Z,101865.19
2022-12-02T08:39:06.685Z,101866.97
2022-12-02T08:41:36.694Z,101860.13
2022-12-02T08:44:05.896Z,101862.84
2022-12-02T08:46:34.920Z,101869.00
2022-12-02T08:49:02.699Z,101860.34
2022-12-02T08:51:30.496Z,101859.53
2022-12-02T08:53:58.277Z,101868.34
2022-12-02T08:56:26.493Z,101863.22
2022-12-02T08:58:55.577Z,101865.09
2022-12-02T09:01:23.578Z,101866.91
2022-12-02T09:03:51.351Z,101865.28
2022-12-02T09:06:19.169Z,101866.38
2022-12-02T09:08:47.023Z,101864.03
2022-12-02T09:11:15.693Z,101871.19
2022-12-02T09:13:43.456Z,101873.84
2022-12-02T09:16:12.626Z,101877.56
2022-12-02T09:18:40.488Z,101869.75
2022-12-02T09:21:08.275Z,101862.78
2022-12-02T09:23:36.053Z,101860.19
2022-12-02T09:26:03.814Z,101861.34
2022-12-02T09:28:31.561Z,101852.63
2022-12-02T09:30:59.357Z,101855.31
2022-12-02T09:33:33.693Z,101855.41
2022-12-02T09:36:01.801Z,101858.94
2022-12-02T09:38:32.087Z,101861.63
2022-12-02T09:41:00.396Z,101852.16
2022-12-02T09:43:29.102Z,101846.03
2022-12-02T09:45:57.590Z,101852.25
2022-12-02T09:48:26.166Z,101847.13
2022-12-02T09:50:57.094Z,101857.72
2022-12-02T09:53:27.005Z,101855.13
2022-12-02T09:55:54.785Z,101854.31
2022-12-02T09:58:22.654Z,101845.69
2022-12-02T10:00:53.176Z,101846.56
2022-12-02T10:03:24.855Z,101844.75
2022-12-02T10:05:52.742Z,101846.56
2022-12-02T10:08:25.250Z,101847.47
2022-12-02T10:10:55.286Z,101848.38
2022-12-02T10:13:24.544Z,101850.16
2022-12-02T10:15:52.510Z,101838.00
2022-12-02T10:18:22.585Z,101844.16
2022-12-02T10:20:51.508Z,101845.03
2022-12-02T10:23:20.749Z,101843.31
2022-12-02T10:25:52.973Z,101833.78
2022-12-02T10:28:27.703Z,101840.09
2022-12-02T10:31:01.593Z,101834.88
2022-12-02T10:33:31.465Z,101835.75
2022-12-02T10:36:00.839Z,101838.28
2022-12-02T10:38:46.397Z,101839.25
2022-12-02T10:41:20.372Z,101831.50
2022-12-02T10:44:06.915Z,101827.25
2022-12-02T10:46:35.539Z,101827.44
2022-12-02T10:49:32.425Z,101822.31
2022-12-02T10:52:04.690Z,101826.00
2022-12-02T10:54:39.606Z,101817.34
2022-12-02T10:57:17.627Z,101810.41
2022-12-02T10:59:45.486Z,101811.47
2022-12-02T11:02:21.881Z,101809.78
2022-12-02T11:04:50.968Z,101802.09
2022-12-02T11:07:22.442Z,101808.16
2022-12-02T11:09:54.168Z,101811.66
2022-12-02T11:12:38.133Z,101806.34
2022-12-02T11:15:39.067Z,101815.06
2022-12-02T11:18:08.855Z,101812.38
2022-12-02T11:20:42.690Z,101801.94
2022-12-02T11:23:26.149Z,101805.25
2022-12-02T11:26:00.827Z,101798.16
2022-12-02T11:29:04.711Z,101808.53
2022-12-02T11:31:33.288Z,101799.69
2022-12-02T11:34:26.003Z,101805.72
2022-12-02T11:37:37.268Z,101812.59
2022-12-02T11:40:27.285Z,101813.41
2022-12-02T11:43:36.003Z,101806.31
2022-12-02T11:46:05.423Z,101807.09
2022-12-02T11:48:33.510Z,101810.50
2022-12-02T11:51:01.301Z,101804.31
2022-12-02T11:53:29.129Z,101799.91
2022-12-02T11:55:56.899Z,101798.97
2022-12-02T11:58:29.194Z,101795.41
2022-12-02T12:01:06.078Z,101798.00
2022-12-02T12:03:34.849Z,101800.53
2022-12-02T12:06:08.519Z,101787.47
2022-12-02T12:08:37.212Z,101793.53
2022-12-02T12:11:23.463Z,101787.47
2022-12-02T12:14:03.133Z,101792.59
2022-12-02T12:16:34.182Z,101783.06
2022-12-02T12:19:04.595Z,101789.97
2022-12-02T12:21:45.883Z,101779.44
2022-12-02T12:24:28.974Z,101788.22
2022-12-02T12:26:58.195Z,101776.03
2022-12-02T12:29:28.446Z,101781.16
2022-12-02T12:31:57.571Z,101781.16
2022-12-02T12:34:25.454Z,101784.66
2022-12-02T12:36:53.376Z,101773.34
2022-12-02T12:39:21.180Z,101774.22
2022-12-02T12:42:04.686Z,101779.34
2022-12-02T12:44:33.082Z,101779.44
2022-12-02T12:47:04.837Z,101768.91
2022-12-02T12:49:33.093Z,101769.72
2022-12-02T12:52:01.412Z,101771.50
2022-12-02T12:54:29.384Z,101774.97
2022-12-02T12:56:57.139Z,101773.16
2022-12-02T12:59:25.081Z,101764.41
2022-12-02T13:01:53.056Z,101764.41
2022-12-02T13:04:22.382Z,101768.75
2022-12-02T13:06:50.212Z,101764.25
2022-12-02T13:09:18.601Z,101761.63
2022-12-02T13:11:46.477Z,101772.06
2022-12-02T13:14:14.236Z,101760.75
2022-12-02T13:16:42.065Z,101757.19
2022-12-02T13:19:10.049Z,101764.25
2022-12-02T13:21:39.202Z,101769.38
2022-12-02T13:24:07.381Z,101761.44
2022-12-02T13:26:35.215Z,101764.97
2022-12-02T13:29:02.992Z,101766.75
2022-12-02T13:31:30.862Z,101758.84
2022-12-02T13:33:58.703Z,101753.69
2022-12-02T13:36:26.481Z,101758.03
2022-12-02T13:38:55.916Z,101758.84
2022-12-02T13:41:25.502Z,101760.56
2022-12-02T13:43:53.236Z,101766.56
2022-12-02T13:46:21.083Z,101763.06
2022-12-02T13:48:48.913Z,101763.88
2022-12-02T13:51:16.712Z,101778.66
2022-12-02T13:53:44.579Z,101770.72
2022-12-02T13:56:13.682Z,101769.75
2022-12-02T13:58:41.457Z,101776.69
2022-12-02T14:01:09.464Z,101774.88
2022-12-02T14:03:37.458Z,101777.50
2022-12-02T14:06:05.533Z,101780.94
2022-12-02T14:08:33.294Z,101773.91
2022-12-02T14:11:01.074Z,101773.09
2022-12-02T14:13:30.131Z,101764.25
2022-12-02T14:15:57.937Z,101772.00
2022-12-02T14:18:25.727Z,101781.56
2022-12-02T14:20:53.513Z,101782.44
2022-12-02T14:23:22.043Z,101781.56
2022-12-02T14:25:49.838Z,101776.31
2022-12-02T14:28:17.620Z,101779.69
2022-12-02T14:30:46.990Z,101776.16
2022-12-02T14:33:14.807Z,101786.59
2022-12-02T14:35:43.400Z,101785.59
2022-12-02T14:38:11.672Z,101787.31
2022-12-02T14:40:39.569Z,101791.56
2022-12-02T14:43:12.786Z,101788.03
2022-12-02T14:45:42.179Z,101791.47
2022-12-02T14:48:11.337Z,101787.06
2022-12-02T14:50:39.403Z,101783.56
2022-12-02T14:53:07.424Z,101781.66
2022-12-02T14:55:35.283Z,101787.69
2022-12-02T14:58:03.131Z,101788.50
2022-12-02T15:00:31.031Z,101785.00
2022-12-02T15:02:58.899Z,101787.41
2022-12-02T15:05:28.109Z,101781.22
2022-12-02T15:07:56.100Z,101784.63
2022-12-02T15:10:26.657Z,101782.84
2022-12-02T15:12:54.558Z,101779.22
2022-12-02T15:15:39.644Z,101779.16
2022-12-02T15:18:08.098Z,101781.75
2022-12-02T15:20:37.288Z,101785.06
2022-12-02T15:23:05.104Z,101787.69
2022-12-02T15:25:32.920Z,101788.47
2022-12-02T15:28:00.893Z,101781.56
2022-12-02T15:30:28.809Z,101784.88
2022-12-02T15:32:56.650Z,101789.22
2022-12-02T15:35:24.527Z,101788.41
2022-12-02T15:37:53.642Z,101785.72
2022-12-02T15:40:21.415Z,101780.41
2022-12-02T15:42:49.240Z,101788.22
2022-12-02T15:45:17.096Z,101788.22
2022-12-02T15:47:44.856Z,101775.19
2022-12-02T15:50:12.755Z,101778.59
2022-12-02T15:52:40.589Z,101776.81
2022-12-02T15:55:11.251Z,101779.41
2022-12-02T15:57:39.228Z,101777.50
2022-12-02T16:00:08.653Z,101774.91
2022-12-02T16:02:36.521Z,101778.41
2022-12-02T16:05:04.549Z,101784.44
2022-12-02T16:07:32.779Z,101784.44
2022-12-02T16:10:00.644Z,101788.75
2022-12-02T16:12:29.846Z,101790.47
2022-12-02T16:14:59.954Z,101791.34
2022-12-02T16:17:28.101Z,101801.78
2022-12-02T16:19:55.904Z,101798.28
2022-12-02T16:22:23.985Z,101804.41
2022-12-02T16:24:52.137Z,101806.13
2022-12-02T16:27:20.080Z,101802.53
2022-12-02T16:29:49.446Z,101806.03
2022-12-02T16:32:20.587Z,101810.25
2022-12-02T16:34:48.801Z,101813.75
2022-12-02T16:37:20.461Z,101807.56
2022-12-02T16:39:48.461Z,101805.75
2022-12-02T16:42:16.340Z,101811.88
2022-12-02T16:44:44.146Z,101810.06
2022-12-02T16:47:13.281Z,101811.88
2022-12-02T16:49:41.107Z,101812.69
2022-12-02T16:52:08.932Z,101816.13
2022-12-02T16:54:36.909Z,101822.22
2022-12-02T16:57:04.854Z,101817.91
2022-12-02T16:59:32.681Z,101813.50
2022-12-02T17:02:00.512Z,101815.19
2022-12-02T17:04:29.777Z,101809.88
2022-12-02T17:06:57.633Z,101816.81
2022-12-02T17:09:25.434Z,101811.59
2022-12-02T17:11:53.275Z,101815.00
2022-12-02T17:14:21.133Z,101823.75
2022-12-02T17:16:49.114Z,101814.09
2022-12-02T17:19:17.402Z,101821.94
2022-12-02T17:21:46.588Z,101829.75
2022-12-02T17:24:14.351Z,101821.94
2022-12-02T17:26:42.427Z,101820.22
2022-12-02T17:29:10.241Z,101833.19
2022-12-02T17:31:38.112Z,101829.66
2022-12-02T17:34:05.960Z,101827.88
2022-12-02T17:36:33.765Z,101834.00
2022-12-02T17:39:03.151Z,101841.81
2022-12-02T17:41:32.327Z,101832.19
2022-12-02T17:44:00.391Z,101836.50
2022-12-02T17:46:28.265Z,101833.00
2022-12-02T17:48:56.052Z,101839.13
2022-12-02T17:51:23.854Z,101839.13
2022-12-02T17:53:51.858Z,101840.00
2022-12-02T17:56:21.154Z,101840.00
2022-12-02T17:58:48.912Z,101828.69
2022-12-02T18:01:16.815Z,101833.81
2022-12-02T18:03:44.686Z,101831.19
2022-12-02T18:06:12.460Z,101831.19
2022-12-02T18:08:40.252Z,101838.13
2022-12-02T18:11:08.044Z,101839.84
2022-12-02T18:13:37.191Z,101837.25
2022-12-02T18:16:06.915Z,101831.09
2022-12-02T18:18:35.133Z,101830.22
2022-12-02T18:21:02.959Z,101831.94
2022-12-02T18:23:30.777Z,101829.31
2022-12-02T18:25:58.710Z,101829.31
2022-12-02T18:28:26.779Z,101828.38
2022-12-02T18:30:55.963Z,101828.38
2022-12-02T18:33:23.836Z,101830.09
2022-12-02T18:35:51.676Z,101828.38
2022-12-02T18:38:19.438Z,101821.38
2022-12-02T18:40:47.256Z,101819.56
2022-12-02T18:43:15.026Z,101818.69
2022-12-02T18:45:42.952Z,101829.13
2022-12-02T18:48:12.076Z,101825.63
2022-12-02T18:50:39.925Z,101825.63
2022-12-02T18:53:07.707Z,101823.91
2022-12-02T18:55:35.651Z,101820.41
2022-12-02T18:58:03.425Z,101823.91
2022-12-02T19:00:31.224Z,101824.69
2022-12-02T19:02:59.105Z,101820.41
2022-12-02T19:05:28.492Z,101817.69
2022-12-02T19:07:56.441Z,101823.81
2022-12-02T19:10:24.534Z,101813.28
2022-12-02T19:12:52.322Z,101822.72
2022-12-02T19:15:20.169Z,101821.72
2022-12-02T19:17:47.937Z,101817.31
2022-12-02T19:20:15.741Z,101813.72
2022-12-02T19:22:44.891Z,101824.84
2022-12-02T19:25:12.768Z,101823.16
2022-12-02T19:27:57.782Z,101816.84
2022-12-02T19:30:26.451Z,101813.31
2022-12-02T19:32:54.425Z,101817.66
2022-12-02T19:35:22.392Z,101820.16
2022-12-02T19:37:51.500Z,101821.88
2022-12-02T19:40:19.434Z,101820.94
2022-12-02T19:42:47.587Z,101830.50
2022-12-02T19:45:15.903Z,101824.38
2022-12-02T19:47:43.805Z,101819.88
2022-12-02T19:50:14.129Z,101824.19
2022-12-02T19:52:42.846Z,101831.91
2022-12-02T19:55:13.353Z,101827.59
2022-12-02T19:57:41.487Z,101826.59
2022-12-02T20:00:11.973Z,101832.75
2022-12-02T20:02:40.324Z,101834.41
2022-12-02T20:05:09.651Z,101828.31
2022-12-02T20:07:38.325Z,101833.44
2022-12-02T20:10:07.188Z,101827.31
2022-12-02T20:12:36.314Z,101834.31
2022-12-02T20:15:04.993Z,101835.25
2022-12-02T20:17:32.862Z,101838.66
2022-12-02T20:20:00.651Z,101839.53
2022-12-02T20:22:28.406Z,101838.66
2022-12-02T20:24:56.177Z,101831.63
2022-12-02T20:27:23.974Z,101837.66
2022-12-02T20:29:53.145Z,101828.94
2022-12-02T20:32:20.912Z,101832.34
2022-12-02T20:34:48.680Z,101826.25
2022-12-02T20:37:16.427Z,101828.84
2022-12-02T20:39:44.398Z,101830.53
2022-12-02T20:42:12.273Z,101833.97
2022-12-02T20:44:40.055Z,101829.63
2022-12-02T20:47:09.275Z,101833.88
2022-12-02T20:49:37.105Z,101835.47
2022-12-02T20:52:05.011Z,101832.78
2022-12-02T20:54:32.805Z,101828.34
2022-12-02T20:57:00.557Z,101830.94
2022-12-02T20:59:28.331Z,101834.38
2022-12-02T21:01:56.295Z,101831.78
2022-12-02T21:04:25.430Z,101835.28
2022-12-02T21:06:53.248Z,101830.84
2022-12-02T21:09:21.102Z,101825.63
2022-12-02T21:11:49.148Z,101826.56
2022-12-02T21:14:16.963Z,101835.38
2022-12-02T21:16:44.895Z,101835.38
2022-12-02T21:19:13.065Z,101837.00
2022-12-02T21:21:42.206Z,101834.28
2022-12-02T21:24:10.099Z,101831.69
2022-12-02T21:26:38.118Z,101843.78
2022-12-02T21:29:05.986Z,101836.69
2022-12-02T21:31:33.820Z,101834.78
2022-12-02T21:34:01.828Z,101836.59
2022-12-02T21:36:29.670Z,101839.09
2022-12-02T21:38:59.368Z,101833.00
2022-12-02T21:41:27.212Z,101840.00
2022-12-02T21:43:54.948Z,101836.50
2022-12-02T21:46:22.838Z,101838.09
2022-12-02T21:48:50.656Z,101839.88
2022-12-02T21:51:18.421Z,101828.56
2022-12-02T21:53:46.240Z,101829.38
2022-12-02T21:56:15.393Z,101838.91
2022-12-02T21:58:43.139Z,101827.59
2022-12-02T22:01:28.447Z,101833.50
2022-12-02T22:03:56.310Z,101829.19
2022-12-02T22:06:24.144Z,101830.97
2022-12-02T22:08:51.929Z,101830.88
2022-12-02T22:11:21.086Z,101834.31
2022-12-02T22:13:48.990Z,101835.09
2022-12-02T22:16:16.805Z,101835.09
2022-12-02T22:18:44.664Z,101838.59
2022-12-02T22:21:12.652Z,101831.59
2022-12-02T22:23:40.390Z,101838.53
2022-12-02T22:26:08.231Z,101842.91
2022-12-02T22:28:37.335Z,101834.00
2022-12-02T22:31:05.196Z,101827.91
2022-12-02T22:33:33.571Z,101833.91
2022-12-02T22:36:01.845Z,101836.41
2022-12-02T22:38:29.711Z,101832.13
2022-12-02T22:40:57.489Z,101833.91
2022-12-02T22:43:25.270Z,101830.41
2022-12-02T22:45:54.471Z,101830.41
2022-12-02T22:48:22.399Z,101833.81
2022-12-02T22:50:50.176Z,101825.09
2022-12-02T22:53:18.002Z,101832.91
2022-12-02T22:55:45.861Z,101827.69
2022-12-02T22:58:13.651Z,101827.69
2022-12-02T23:00:41.771Z,101817.28
2022-12-02T23:03:10.954Z,101826.09
2022-12-02T23:05:38.810Z,101820.88
2022-12-02T23:08:07.132Z,101823.47
2022-12-02T23:10:36.020Z,101809.56
2022-12-02T23:13:04.298Z,101814.78
2022-12-02T23:15:37.553Z,101812.16
2022-12-02T23:18:06.375Z,101812.94
2022-12-02T23:20:35.835Z,101812.16
2022-12-02T23:23:03.565Z,101814.66
2022-12-02T23:25:31.581Z,101806.94
2022-12-02T23:27:59.360Z,101809.56
2022-12-02T23:30:29.525Z,101800.84
2022-12-02T23:32:57.945Z,101805.13
2022-12-02T23:35:25.754Z,101812.16
2022-12-02T23:37:55.009Z,101806.06
2022-12-02T23:40:22.820Z,101801.72
2022-12-02T23:42:50.654Z,101799.13
2022-12-02T23:45:18.512Z,101797.31
2022-12-02T23:47:46.347Z,101795.63
2022-12-02T23:50:14.089Z,101788.72
2022-12-02T23:52:41.857Z,101787.81
2022-12-02T23:55:11.653Z,101787.81
2022-12-02T23:57:39.425Z,101780.78
